Kendall, WI

1:46 PM CDT on April 27, 2015 (GMT -0500)
Kendall, Wi. | | Change Station
CLOSE
Current Station
Personal Weather Station
Location: Kendall, WI
Elevation: 1021 ft
Nearby Weather Stations

Elev 1021 ft 43.79 °N, 90.37 °W | Updated 2 seconds ago

Clear
Clear
65.1 °F
Feels Like 65.1 °F
N
6.4
Wind Variable Wind from NNW
Gusts 8.1 mph

Today
High -- | Low -- °F
--% Chance of Precip.
Yesterday
High -- | Low -- °F
Precip. -- in
5:59 AM 7:59 PM
Waxing Gibbous, 67% visible
Pressure 30.16 in
Visibility 10.0 miles
Clouds Few 5000 ft
Dew Point 23 °F
Humidity 20%
Rainfall 0.00 in
Snow Depth Not available.
UV 9 out of 12
Pollen 9.40 out of 12
Air Quality Not available.
Flu Activity Local Activity
METAR KVOK 271758Z 35006G17KT 10SM FEW050 18/00 A3014 RMK AO2A SLP213 57013

More Conditions Fewer Conditions

Pressure 30.16 in
Visibility 10.0 miles
Clouds Few 5000 ft
Dew Point 23 °F
Humidity 20%
Rainfall 0.00 in
Snow Depth Not available.
UV 9 out of 12
Pollen 9.40 out of 12
Air Quality Not available.
Flu Activity Local Activity
METAR KVOK 271758Z 35006G17KT 10SM FEW050 18/00 A3014 RMK AO2A SLP213 57013

More Conditions Fewer Conditions

10-Day Weather Forecast

Almanac

Astronomy

Apr. 27, 2015 Rise Set
Actual Time
Civil Twilight
Nautical Twilight
Astronomical Twilight
Moon
Length of Visible Light
Length of Day
Tomorrow will be .
, % of the Moon is Illuminated

Today's Extremes

State Highs State Lows

Community

WunderPhotos

Upload Photos

1,817,398 photos uploaded!

WunderBlogs® & News

Nearby

Air Quality

  Air Quality AQ Index Pollutant
Not available.

Snow Depth

Station Depth Elevation

Earthquake Activity

City Distance Mag. Time & Date
Minimum magnitude displayed is 2.5.

Coastal Water Temperatures

Place Temperature

Stations

Nearby Weather Stations

Station Location Temp. Windchill Dew Point Humidity Wind Precip. Elev Updated Type